createdAt,value
2023-03-12T00:00:11.700Z,0.3
2023-03-12T00:01:15.057Z,0.4
2023-03-12T00:02:18.337Z,0.3
2023-03-12T00:03:21.609Z,0.5
2023-03-12T00:04:24.877Z,0.3
2023-03-12T00:05:28.692Z,0.4
2023-03-12T00:06:32.002Z,0.3
2023-03-12T00:07:35.347Z,0.3
2023-03-12T00:08:37.660Z,0.3
2023-03-12T00:09:40.902Z,0.3
2023-03-12T00:10:44.178Z,0.3
2023-03-12T00:11:47.462Z,0.4
2023-03-12T00:12:50.761Z,0.2
2023-03-12T00:13:54.086Z,0.2
2023-03-12T00:14:57.336Z,0.4
2023-03-12T00:15:59.736Z,0.3
2023-03-12T00:17:01.992Z,0.4
2023-03-12T00:18:04.283Z,0.3
2023-03-12T00:19:06.607Z,0.3
2023-03-12T00:20:09.906Z,0.3
2023-03-12T00:21:13.157Z,0.4
2023-03-12T00:22:16.575Z,0.3
2023-03-12T00:23:19.733Z,0.3
2023-03-12T00:24:23.047Z,0.4
2023-03-12T00:25:26.345Z,0.3
2023-03-12T00:26:29.634Z,0.3
2023-03-12T00:27:32.921Z,0.5
2023-03-12T00:28:36.212Z,0.3
2023-03-12T00:29:39.489Z,0.4
2023-03-12T00:30:42.780Z,0.3
2023-03-12T00:31:46.072Z,0.4
2023-03-12T00:32:48.393Z,0.4
2023-03-12T00:33:51.698Z,0.3
2023-03-12T00:34:54.986Z,0.3
2023-03-12T00:35:58.409Z,0.3
2023-03-12T00:37:01.595Z,0.2
2023-03-12T00:38:04.842Z,0.3
2023-03-12T00:39:08.204Z,0.3
2023-03-12T00:40:10.489Z,0.4
2023-03-12T00:41:12.762Z,0.3
2023-03-12T00:42:16.075Z,0.3
2023-03-12T00:43:19.384Z,0.3
2023-03-12T00:44:22.640Z,0.4
2023-03-12T00:45:25.925Z,0.3
2023-03-12T00:46:29.231Z,0.3
2023-03-12T00:47:32.503Z,0.3
2023-03-12T00:48:35.814Z,0.3
2023-03-12T00:49:39.101Z,0.4
2023-03-12T00:50:42.392Z,0.4
2023-03-12T00:51:45.689Z,0.4
2023-03-12T00:52:48.963Z,0.4
2023-03-12T00:53:52.283Z,0.3
2023-03-12T00:54:54.577Z,0.3
2023-03-12T00:55:57.869Z,0.3
2023-03-12T00:57:01.179Z,0.3
2023-03-12T00:58:04.447Z,0.2
2023-03-12T00:59:07.731Z,0.1
2023-03-12T01:00:11.035Z,0.2
2023-03-12T01:01:14.325Z,0.2
2023-03-12T01:02:16.666Z,0.2
2023-03-12T01:03:18.940Z,0.3
2023-03-12T01:04:21.260Z,0.3
2023-03-12T01:05:23.555Z,0.2
2023-03-12T01:06:26.863Z,0.2
2023-03-12T01:07:29.170Z,0.2
2023-03-12T01:08:32.102Z,0.2
2023-03-12T01:09:35.389Z,0.2
2023-03-12T01:10:38.669Z,0.2
2023-03-12T01:11:41.989Z,0.2
2023-03-12T01:12:45.259Z,0.2
2023-03-12T01:13:48.546Z,0.1
2023-03-12T01:14:51.825Z,0.3
2023-03-12T01:15:55.171Z,0.2
2023-03-12T01:16:58.423Z,0.3
2023-03-12T01:18:01.713Z,0.2
2023-03-12T01:19:04.993Z,0.2
2023-03-12T01:20:08.300Z,0.2
2023-03-12T01:21:11.592Z,0.2
2023-03-12T01:22:13.899Z,0.3
2023-03-12T01:23:17.185Z,0.2
2023-03-12T01:24:20.528Z,0.2
2023-03-12T01:25:23.778Z,0.2
2023-03-12T01:26:27.068Z,0.2
2023-03-12T01:27:30.346Z,0.2
2023-03-12T01:28:33.657Z,0.2
2023-03-12T01:29:35.977Z,0.3
2023-03-12T01:30:38.265Z,0.2
2023-03-12T01:31:40.580Z,0.2
2023-03-12T01:32:42.881Z,0.2
2023-03-12T01:33:46.167Z,0.2
2023-03-12T01:34:49.488Z,0.1
2023-03-12T01:35:52.829Z,0.2
2023-03-12T01:36:56.041Z,0.1
2023-03-12T01:37:59.346Z,0.2
2023-03-12T01:39:02.645Z,0.2
2023-03-12T01:40:05.925Z,0.2
2023-03-12T01:41:09.209Z,0.2
2023-03-12T01:42:12.515Z,0.2
2023-03-12T01:44:19.110Z,0.2
2023-03-12T01:45:22.374Z,0.3
2023-03-12T01:46:24.695Z,0.3
2023-03-12T01:47:27.998Z,0.2
2023-03-12T01:48:31.278Z,0.4
2023-03-12T01:49:34.604Z,0.2
2023-03-12T01:50:37.878Z,0.2
2023-03-12T01:51:41.197Z,0.2
2023-03-12T01:52:44.448Z,0.2
2023-03-12T01:53:47.725Z,0.2
2023-03-12T01:54:50.054Z,0.2
2023-03-12T01:55:52.347Z,0.3
2023-03-12T01:56:54.706Z,0.2
2023-03-12T01:57:57.014Z,0.3
2023-03-12T01:59:00.257Z,0.3
2023-03-12T02:00:03.551Z,0.2
2023-03-12T02:01:06.853Z,0.2
2023-03-12T02:02:10.248Z,0.3
2023-03-12T02:03:13.429Z,0.3
2023-03-12T02:04:16.720Z,0.2
2023-03-12T02:05:20.018Z,0.4
2023-03-12T02:06:23.312Z,0.3
2023-03-12T02:07:26.596Z,0.2
2023-03-12T02:08:29.894Z,0.3
2023-03-12T02:09:33.181Z,0.8
2023-03-12T02:10:36.526Z,0.3
2023-03-12T02:11:38.774Z,0.3
2023-03-12T02:12:42.072Z,0.3
2023-03-12T02:13:45.371Z,0.2
2023-03-12T02:14:48.669Z,0.2
2023-03-12T02:15:51.951Z,0.4
2023-03-12T02:16:55.253Z,0.3
2023-03-12T02:19:01.878Z,0.2
2023-03-12T02:20:04.147Z,0.4
2023-03-12T02:21:06.450Z,0.2
2023-03-12T02:22:09.750Z,0.3
2023-03-12T02:23:12.059Z,0.2
2023-03-12T02:24:14.365Z,0.3
2023-03-12T02:25:17.690Z,0.3
2023-03-12T02:26:20.939Z,0.2
2023-03-12T02:27:24.241Z,0.2
2023-03-12T02:28:27.537Z,0.3
2023-03-12T02:29:30.818Z,0.4
2023-03-12T02:30:34.120Z,0.4
2023-03-12T02:31:36.456Z,0.4
2023-03-12T02:32:39.727Z,0.4
2023-03-12T02:33:43.015Z,0.3
2023-03-12T02:34:46.300Z,0.5
2023-03-12T02:35:49.584Z,0.4
2023-03-12T02:36:52.897Z,0.4
2023-03-12T02:37:56.195Z,0.4
2023-03-12T02:38:59.458Z,0.5
2023-03-12T02:40:02.862Z,0.5
2023-03-12T02:41:06.089Z,0.5
2023-03-12T02:42:09.370Z,0.3
2023-03-12T02:43:12.633Z,0.4
2023-03-12T02:44:15.924Z,0.4
2023-03-12T02:45:18.252Z,0.3
2023-03-12T02:46:20.545Z,0.3
2023-03-12T02:47:22.851Z,0.3
2023-03-12T02:48:25.155Z,0.3
2023-03-12T02:49:28.461Z,0.3
2023-03-12T02:50:31.759Z,0.4
2023-03-12T02:51:35.819Z,0.2
2023-03-12T02:52:39.089Z,0.4
2023-03-12T02:53:42.329Z,0.3
2023-03-12T02:54:45.664Z,0.4
2023-03-12T02:55:48.891Z,0.4
2023-03-12T02:56:52.194Z,0.4
2023-03-12T02:57:55.510Z,0.3
2023-03-12T02:58:58.773Z,0.4
2023-03-12T03:00:02.090Z,0.3
2023-03-12T03:01:05.363Z,0.3
2023-03-12T03:02:07.673Z,0.2
2023-03-12T03:03:10.984Z,0.3
2023-03-12T03:04:14.270Z,0.3
2023-03-12T03:05:17.602Z,0.2
2023-03-12T03:06:20.835Z,0.3
2023-03-12T03:07:24.150Z,0.3
2023-03-12T03:08:27.482Z,0.2
2023-03-12T03:09:30.726Z,0.3
2023-03-12T03:10:33.047Z,0.2
2023-03-12T03:11:35.329Z,0.4
2023-03-12T03:12:37.655Z,0.3
2023-03-12T03:13:39.969Z,0.2
2023-03-12T03:14:43.251Z,0.4
2023-03-12T03:15:46.552Z,0.5
2023-03-12T03:16:49.877Z,0.4
2023-03-12T03:17:53.122Z,0.3
2023-03-12T03:18:56.430Z,0.3
2023-03-12T03:19:59.721Z,0.4
2023-03-12T03:21:03.025Z,0.4
2023-03-12T03:22:06.297Z,0.4
2023-03-12T03:23:09.689Z,0.3
2023-03-12T03:24:12.890Z,0.4
2023-03-12T03:25:16.164Z,0.3
2023-03-12T03:26:19.489Z,0.4
2023-03-12T03:27:21.777Z,0.3
2023-03-12T03:28:25.073Z,0.4
2023-03-12T03:29:28.374Z,0.4
2023-03-12T03:30:31.702Z,0.4
2023-03-12T03:31:34.965Z,0.4
2023-03-12T03:32:38.231Z,0.3
2023-03-12T03:33:41.531Z,0.3
2023-03-12T03:34:43.844Z,0.3
2023-03-12T03:35:46.164Z,0.4
2023-03-12T03:36:48.527Z,0.4
2023-03-12T03:37:50.774Z,0.3
2023-03-12T03:38:54.109Z,0.3
2023-03-12T03:39:57.367Z,0.3
2023-03-12T03:41:00.631Z,0.4
2023-03-12T03:42:03.924Z,0.4
2023-03-12T03:43:07.236Z,0.3
2023-03-12T03:44:10.532Z,0.4
2023-03-12T03:45:13.824Z,0.4
2023-03-12T03:46:17.099Z,0.4
2023-03-12T03:47:20.393Z,0.4
2023-03-12T03:48:23.699Z,0.4
2023-03-12T03:49:26.979Z,0.4
2023-03-12T03:50:30.264Z,0.4
2023-03-12T03:51:33.091Z,0.3
2023-03-12T03:52:36.375Z,0.2
2023-03-12T03:53:39.675Z,0.3
2023-03-12T03:54:42.979Z,0.3
2023-03-12T03:55:46.299Z,0.2
2023-03-12T03:56:49.549Z,0.2
2023-03-12T03:57:52.847Z,0.2
2023-03-12T03:58:55.165Z,0.3
2023-03-12T03:59:57.470Z,0.3
2023-03-12T04:01:00.755Z,0.3
2023-03-12T04:02:03.065Z,0.3
2023-03-12T04:03:06.494Z,0.3
2023-03-12T04:04:09.787Z,0.3
2023-03-12T04:05:13.056Z,0.3
2023-03-12T04:06:16.347Z,0.3
2023-03-12T04:07:19.663Z,0.2
2023-03-12T04:08:22.943Z,0.2
2023-03-12T04:09:26.303Z,0.2
2023-03-12T04:10:30.227Z,0.3
2023-03-12T04:11:33.526Z,0.2
2023-03-12T04:12:36.818Z,0.4
2023-03-12T04:13:40.112Z,0.2
2023-03-12T04:14:43.401Z,0.2
2023-03-12T04:15:46.705Z,0.2
2023-03-12T04:16:48.986Z,0.2
2023-03-12T04:17:52.290Z,0.2
2023-03-12T04:18:55.631Z,0.3
2023-03-12T04:19:58.869Z,0.3
2023-03-12T04:21:02.162Z,0.3
2023-03-12T04:22:05.461Z,0.3
2023-03-12T04:23:08.769Z,0.2
2023-03-12T04:24:11.069Z,0.3
2023-03-12T04:25:13.426Z,0.2
2023-03-12T04:26:15.681Z,0.2
2023-03-12T04:27:17.991Z,0.2
2023-03-12T04:28:21.268Z,0.2
2023-03-12T04:29:24.567Z,0.3
2023-03-12T04:30:27.873Z,0.3
2023-03-12T04:31:31.228Z,0.3
2023-03-12T04:32:34.454Z,0.2
2023-03-12T04:33:37.741Z,0.3
2023-03-12T04:34:41.028Z,0.3
2023-03-12T04:35:44.381Z,0.2
2023-03-12T04:36:47.610Z,0.3
2023-03-12T04:37:50.905Z,0.3
2023-03-12T04:38:54.207Z,0.3
2023-03-12T04:39:57.507Z,0.3
2023-03-12T04:40:59.802Z,0.2
2023-03-12T04:42:03.098Z,0.3
2023-03-12T04:43:06.399Z,0.2
2023-03-12T04:44:09.681Z,0.2
2023-03-12T04:45:12.962Z,0.3
2023-03-12T04:46:16.258Z,0.2
2023-03-12T04:47:19.551Z,0.3
2023-03-12T04:48:21.882Z,0.3
2023-03-12T04:49:24.224Z,0.2
2023-03-12T04:51:30.521Z,0.3
2023-03-12T04:52:33.478Z,0.3
2023-03-12T04:53:36.802Z,0.3
2023-03-12T04:54:39.096Z,0.4
2023-03-12T04:55:42.392Z,0.3
2023-03-12T04:56:45.682Z,0.3
2023-03-12T04:57:48.972Z,0.4
2023-03-12T04:58:52.271Z,0.3
2023-03-12T04:59:55.530Z,0.3
2023-03-12T05:00:58.843Z,0.3
2023-03-12T05:02:02.132Z,0.3
2023-03-12T05:03:05.425Z,0.3
2023-03-12T05:04:08.704Z,0.4
2023-03-12T05:05:12.004Z,0.3
2023-03-12T05:06:15.298Z,0.3
2023-03-12T05:07:18.594Z,0.3
2023-03-12T05:08:20.892Z,0.3
2023-03-12T05:09:24.178Z,0.3
2023-03-12T05:10:27.508Z,0.3
2023-03-12T05:11:30.792Z,0.2
2023-03-12T05:12:34.065Z,0.3
2023-03-12T05:13:37.359Z,0.3
2023-03-12T05:14:39.674Z,0.3
2023-03-12T05:15:41.991Z,0.4
2023-03-12T05:16:45.275Z,0.3
2023-03-12T05:17:47.582Z,0.3
2023-03-12T05:18:49.893Z,0.4
2023-03-12T05:19:53.191Z,0.3
2023-03-12T05:20:56.455Z,0.3
2023-03-12T05:21:59.803Z,0.4
2023-03-12T05:23:03.058Z,0.3
2023-03-12T05:24:06.383Z,0.3
2023-03-12T05:25:09.650Z,0.2
2023-03-12T05:26:12.942Z,0.3
2023-03-12T05:27:16.219Z,0.3
2023-03-12T05:28:19.518Z,0.2
2023-03-12T05:29:22.821Z,0.3
2023-03-12T05:30:26.096Z,0.3
2023-03-12T05:31:29.381Z,0.4
2023-03-12T05:32:31.700Z,0.4
2023-03-12T05:33:34.985Z,0.3
2023-03-12T05:34:38.295Z,0.3
2023-03-12T05:35:41.581Z,0.3
2023-03-12T05:36:44.868Z,0.3
2023-03-12T05:37:48.157Z,0.3
2023-03-12T05:38:51.446Z,0.3
2023-03-12T05:39:53.794Z,0.3
2023-03-12T05:40:56.082Z,0.2
2023-03-12T05:41:59.366Z,0.4
2023-03-12T05:43:02.716Z,0.4
2023-03-12T05:44:05.948Z,0.2
2023-03-12T05:45:09.227Z,0.3
2023-03-12T05:46:12.539Z,0.3
2023-03-12T05:47:15.812Z,0.3
2023-03-12T05:48:19.124Z,0.3
2023-03-12T05:49:22.406Z,0.3
2023-03-12T05:50:25.695Z,0.3
2023-03-12T05:51:29.027Z,0.3
2023-03-12T05:52:32.288Z,0.3
2023-03-12T05:53:35.579Z,0.2
2023-03-12T05:54:37.893Z,0.4
2023-03-12T05:55:41.162Z,0.3
2023-03-12T05:56:44.464Z,0.3
2023-03-12T05:57:47.771Z,0.3
2023-03-12T05:58:51.098Z,0.3
2023-03-12T05:59:54.408Z,0.2
2023-03-12T06:00:57.622Z,0.2
2023-03-12T06:01:59.949Z,0.3
2023-03-12T06:03:02.257Z,0.3
2023-03-12T06:04:04.571Z,0.4
2023-03-12T06:05:06.880Z,0.3
2023-03-12T06:06:10.167Z,0.3
2023-03-12T06:07:13.450Z,0.3
2023-03-12T06:08:16.739Z,0.3
2023-03-12T06:09:20.034Z,0.4
2023-03-12T06:10:23.333Z,0.4
2023-03-12T06:11:26.617Z,0.4
2023-03-12T06:12:29.918Z,0.3
2023-03-12T06:13:33.212Z,0.2
2023-03-12T06:14:37.134Z,0.3
2023-03-12T06:15:40.410Z,0.3
2023-03-12T06:16:43.709Z,0.2
2023-03-12T06:17:47.076Z,0.3
2023-03-12T06:18:49.306Z,0.4
2023-03-12T06:19:52.588Z,0.3
2023-03-12T06:20:55.885Z,0.4
2023-03-12T06:21:59.225Z,0.3
2023-03-12T06:23:02.511Z,0.4
2023-03-12T06:24:05.769Z,0.3
2023-03-12T06:25:09.050Z,0.5
2023-03-12T06:26:11.446Z,0.3
2023-03-12T06:27:13.687Z,0.3
2023-03-12T06:28:16.970Z,0.3
2023-03-12T06:29:19.286Z,0.3
2023-03-12T06:30:21.590Z,0.3
2023-03-12T06:31:24.868Z,0.4
2023-03-12T06:32:28.167Z,0.3
2023-03-12T06:33:31.470Z,0.3
2023-03-12T06:34:34.763Z,0.2
2023-03-12T06:35:38.042Z,0.4
2023-03-12T06:36:41.334Z,0.3
2023-03-12T06:37:44.659Z,0.2
2023-03-12T06:38:47.933Z,0.3
2023-03-12T06:39:51.220Z,0.3
2023-03-12T06:40:54.520Z,0.3
2023-03-12T06:41:57.806Z,0.3
2023-03-12T06:43:01.179Z,0.3
2023-03-12T06:44:03.410Z,0.4
2023-03-12T06:45:06.695Z,0.3
2023-03-12T06:46:09.985Z,0.3
2023-03-12T06:47:13.283Z,0.3
2023-03-12T06:48:16.588Z,0.4
2023-03-12T06:49:19.917Z,0.5
2023-03-12T06:50:23.161Z,0.4
2023-03-12T06:51:25.472Z,0.4
2023-03-12T06:52:27.809Z,0.3
2023-03-12T06:53:30.080Z,0.3
2023-03-12T06:54:32.454Z,0.3
2023-03-12T06:55:35.682Z,0.4
2023-03-12T06:56:38.974Z,0.3
2023-03-12T06:57:42.293Z,0.3
2023-03-12T06:58:45.624Z,0.3
2023-03-12T06:59:48.859Z,0.3
2023-03-12T07:00:52.177Z,0.3
2023-03-12T07:01:55.424Z,0.3
2023-03-12T07:02:58.722Z,0.3
2023-03-12T07:04:02.043Z,0.3
2023-03-12T07:05:05.331Z,0.2
2023-03-12T07:06:08.599Z,0.3
2023-03-12T07:07:11.901Z,0.2
2023-03-12T07:08:14.203Z,0.3
2023-03-12T07:09:17.522Z,0.3
2023-03-12T07:10:20.806Z,0.4
2023-03-12T07:11:24.119Z,0.3
2023-03-12T07:12:27.370Z,0.3
2023-03-12T07:13:31.383Z,0.3
2023-03-12T07:14:34.765Z,0.3
2023-03-12T07:15:36.992Z,0.3
2023-03-12T07:17:42.596Z,0.4
2023-03-12T07:18:44.899Z,0.3
2023-03-12T07:19:47.204Z,0.3
2023-03-12T07:20:50.498Z,0.3
2023-03-12T07:21:53.797Z,0.2
2023-03-12T07:22:57.081Z,0.2
2023-03-12T07:24:00.389Z,0.3
2023-03-12T07:25:03.649Z,0.2
2023-03-12T07:26:06.966Z,0.2
2023-03-12T07:27:10.243Z,0.2
2023-03-12T07:28:13.554Z,0.2
2023-03-12T07:29:16.842Z,0.3
2023-03-12T07:30:20.142Z,0.3
2023-03-12T07:31:23.418Z,0.3
2023-03-12T07:32:26.866Z,0.3
2023-03-12T07:33:29.167Z,0.4
2023-03-12T07:34:32.465Z,0.3
2023-03-12T07:35:35.848Z,0.4
2023-03-12T07:36:39.042Z,0.5
2023-03-12T07:37:42.382Z,0.3
2023-03-12T07:38:45.646Z,0.5
2023-03-12T07:39:48.930Z,0.3
2023-03-12T07:40:51.111Z,0.3
2023-03-12T07:41:53.388Z,0.4
2023-03-12T07:42:55.895Z,0.2
2023-03-12T07:43:58.025Z,0.4
2023-03-12T07:45:01.351Z,0.4
2023-03-12T07:46:04.782Z,0.3
2023-03-12T07:47:07.916Z,0.3
2023-03-12T07:48:11.219Z,0.3
2023-03-12T07:49:14.574Z,0.3
2023-03-12T07:50:17.758Z,0.3
2023-03-12T07:51:21.166Z,0.3
2023-03-12T07:52:24.329Z,0.2
2023-03-12T07:53:27.822Z,0.3
2023-03-12T07:54:31.777Z,0.4
2023-03-12T07:55:35.109Z,0.4
2023-03-12T07:56:38.441Z,0.4
2023-03-12T07:57:40.673Z,0.4
2023-03-12T07:58:43.996Z,0.4
2023-03-12T07:59:47.332Z,0.4
2023-03-12T08:00:50.693Z,0.3
2023-03-12T08:01:53.779Z,0.3
2023-03-12T08:02:57.094Z,0.2
2023-03-12T08:04:00.436Z,0.4
2023-03-12T08:05:02.731Z,0.3
2023-03-12T08:06:05.053Z,0.3
2023-03-12T08:07:08.198Z,0.3
2023-03-12T08:08:10.575Z,0.3
2023-03-12T08:09:12.819Z,0.3
2023-03-12T08:10:16.125Z,0.3
2023-03-12T08:11:19.378Z,0.3
2023-03-12T08:12:22.693Z,0.3
2023-03-12T08:13:26.001Z,0.3
2023-03-12T08:14:29.266Z,0.3
2023-03-12T08:15:32.557Z,0.3
2023-03-12T08:16:35.864Z,0.4
2023-03-12T08:17:39.246Z,0.3
2023-03-12T08:18:42.437Z,0.3
2023-03-12T08:19:45.761Z,0.3
2023-03-12T08:20:49.049Z,0.4
2023-03-12T08:21:52.313Z,0.3
2023-03-12T08:22:54.631Z,0.3
2023-03-12T08:23:57.894Z,0.3
2023-03-12T08:25:01.216Z,0.3
2023-03-12T08:27:07.786Z,0.3
2023-03-12T08:28:11.067Z,0.4
2023-03-12T08:29:14.378Z,0.5
2023-03-12T08:30:17.658Z,0.4
2023-03-12T08:31:19.970Z,0.3
2023-03-12T08:32:22.281Z,0.3
2023-03-12T08:33:25.567Z,0.4
2023-03-12T08:34:27.885Z,0.4
2023-03-12T08:35:30.268Z,0.3
2023-03-12T08:36:33.486Z,0.5
2023-03-12T08:37:36.825Z,0.4
2023-03-12T08:38:40.085Z,0.4
2023-03-12T08:39:43.383Z,0.3
2023-03-12T08:40:46.649Z,0.3
2023-03-12T08:41:49.950Z,0.3
2023-03-12T08:42:53.237Z,0.2
2023-03-12T08:43:56.530Z,0.3
2023-03-12T08:44:59.835Z,0.3
2023-03-12T08:46:03.159Z,0.4
2023-03-12T08:47:06.414Z,0.4
2023-03-12T08:48:09.822Z,0.3
2023-03-12T08:49:12.000Z,0.3
2023-03-12T08:50:15.338Z,0.5
2023-03-12T08:51:18.606Z,0.3
2023-03-12T08:52:21.893Z,0.3
2023-03-12T08:53:25.176Z,0.4
2023-03-12T08:54:28.556Z,0.4
2023-03-12T08:55:32.033Z,0.3
2023-03-12T08:56:35.099Z,0.3
2023-03-12T08:57:37.303Z,0.3
2023-03-12T08:58:39.696Z,0.3
2023-03-12T08:59:41.949Z,0.3
2023-03-12T09:00:45.280Z,0.4
2023-03-12T09:01:48.519Z,0.2
2023-03-12T09:02:51.803Z,0.2
2023-03-12T09:03:55.142Z,0.2
2023-03-12T09:04:58.461Z,0.3
2023-03-12T09:06:01.701Z,0.2
2023-03-12T09:07:05.001Z,0.3
2023-03-12T09:08:08.269Z,0.3
2023-03-12T09:09:11.608Z,0.2
2023-03-12T09:10:14.868Z,0.2
2023-03-12T09:11:18.157Z,0.4
2023-03-12T09:12:21.443Z,0.3
2023-03-12T09:13:23.773Z,0.3
2023-03-12T09:14:27.040Z,0.2
2023-03-12T09:15:30.366Z,0.3
2023-03-12T09:16:33.697Z,0.3
2023-03-12T09:17:36.946Z,0.4
2023-03-12T09:18:40.190Z,0.3
2023-03-12T09:19:43.510Z,0.2
2023-03-12T09:20:45.821Z,0.2
2023-03-12T09:21:48.116Z,0.3
2023-03-12T09:22:51.395Z,0.3
2023-03-12T09:23:53.756Z,0.3
2023-03-12T09:24:56.104Z,0.2
2023-03-12T09:25:59.348Z,0.3
2023-03-12T09:27:02.687Z,0.3
2023-03-12T09:28:05.904Z,0.2
2023-03-12T09:29:09.204Z,0.2
2023-03-12T09:30:12.536Z,0.2
2023-03-12T09:31:15.809Z,0.2
2023-03-12T09:32:19.069Z,0.2
2023-03-12T09:33:22.355Z,0.2
2023-03-12T09:34:24.686Z,0.3
2023-03-12T09:35:28.005Z,0.3
2023-03-12T09:36:31.279Z,0.2
2023-03-12T09:37:35.267Z,0.2
2023-03-12T09:38:38.668Z,0.3
2023-03-12T09:39:41.828Z,0.3
2023-03-12T09:40:45.135Z,0.3
2023-03-12T09:41:48.439Z,0.3
2023-03-12T09:42:51.851Z,0.2
2023-03-12T09:43:54.999Z,0.3
2023-03-12T09:44:58.301Z,0.3
2023-03-12T09:46:01.673Z,0.3
2023-03-12T09:47:04.892Z,0.3
2023-03-12T09:48:07.225Z,0.2
2023-03-12T09:49:10.482Z,0.2
2023-03-12T09:50:13.776Z,0.2
2023-03-12T09:51:17.068Z,0.2
2023-03-12T09:52:20.363Z,0.2
2023-03-12T09:53:22.856Z,0.1
2023-03-12T09:54:25.059Z,0.3
2023-03-12T09:55:27.310Z,0.3
2023-03-12T09:56:29.612Z,0.2
2023-03-12T09:57:32.939Z,0.2
2023-03-12T09:58:36.207Z,0.1
2023-03-12T09:59:39.526Z,0.3
2023-03-12T10:00:42.846Z,0.3
2023-03-12T10:01:46.072Z,0.2
2023-03-12T10:02:49.382Z,0.2
2023-03-12T10:03:52.682Z,0.2
2023-03-12T10:04:55.959Z,0.3
2023-03-12T10:05:59.257Z,0.2
2023-03-12T10:07:02.524Z,0.3
2023-03-12T10:08:05.818Z,0.2
2023-03-12T10:09:09.114Z,0.3
2023-03-12T10:10:11.436Z,0.4
2023-03-12T10:11:14.717Z,0.2
2023-03-12T10:12:18.003Z,0.2
2023-03-12T10:13:21.307Z,0.2
2023-03-12T10:14:24.595Z,0.2
2023-03-12T10:15:27.877Z,0.2
2023-03-12T10:16:31.220Z,0.2
2023-03-12T10:17:33.494Z,0.2
2023-03-12T10:18:35.781Z,0.2
2023-03-12T10:19:39.133Z,0.2
2023-03-12T10:20:41.387Z,0.3
2023-03-12T10:21:43.702Z,0.3
2023-03-12T10:22:46.989Z,0.3
2023-03-12T10:23:50.281Z,0.3
2023-03-12T10:24:53.586Z,0.3
2023-03-12T10:25:56.939Z,0.3
2023-03-12T10:27:00.174Z,0.2
2023-03-12T10:28:03.444Z,0.1
2023-03-12T10:29:06.756Z,0.2
2023-03-12T10:30:10.036Z,0.2
2023-03-12T10:31:13.372Z,0.1
2023-03-12T10:32:16.782Z,0.2
2023-03-12T10:33:19.919Z,0.2
2023-03-12T10:34:23.215Z,0.2
2023-03-12T10:35:25.509Z,0.2
2023-03-12T10:36:28.813Z,0.2
2023-03-12T10:37:32.680Z,0.2
2023-03-12T10:38:35.949Z,0.2
2023-03-12T10:39:39.252Z,0.3
2023-03-12T10:40:42.548Z,0.2
2023-03-12T10:41:45.815Z,0.2
2023-03-12T10:42:48.148Z,0.2
2023-03-12T10:43:50.450Z,0.1
2023-03-12T10:44:52.839Z,0.2
2023-03-12T10:45:55.110Z,0.2
2023-03-12T10:46:58.358Z,0.2
2023-03-12T10:48:01.649Z,0.3
2023-03-12T10:49:04.929Z,0.2
2023-03-12T10:50:08.243Z,0.2
2023-03-12T10:51:11.602Z,0.2
2023-03-12T10:52:14.789Z,0.2
2023-03-12T10:53:18.106Z,0.2
2023-03-12T10:54:21.406Z,0.2
2023-03-12T10:55:24.697Z,0.1
2023-03-12T10:56:27.982Z,0.2
2023-03-12T10:57:31.262Z,0.1
2023-03-12T10:58:34.622Z,0.1
2023-03-12T10:59:36.874Z,0.1
2023-03-12T11:00:40.232Z,0.1
2023-03-12T11:01:43.459Z,0.1
2023-03-12T11:02:46.788Z,0.1
2023-03-12T11:03:50.039Z,0.2
2023-03-12T11:04:53.327Z,0.1
2023-03-12T11:05:56.639Z,0.1
2023-03-12T11:06:58.928Z,0.1
2023-03-12T11:08:01.292Z,0.1
2023-03-12T11:09:03.573Z,0.1
2023-03-12T11:10:05.888Z,0.1
2023-03-12T11:11:09.162Z,0.6
2023-03-12T11:12:12.450Z,0.1
2023-03-12T11:13:15.729Z,0.1
2023-03-12T11:14:19.128Z,0.2
2023-03-12T11:15:22.334Z,0.1
2023-03-12T11:16:25.692Z,0.1
2023-03-12T11:17:28.983Z,0.2
2023-03-12T11:18:32.929Z,0.1
2023-03-12T11:19:36.234Z,0.2
2023-03-12T11:20:39.503Z,0.1
2023-03-12T11:21:42.872Z,0.2
2023-03-12T11:22:46.072Z,0.1
2023-03-12T11:24:51.682Z,0.1
2023-03-12T11:25:54.981Z,0.1
2023-03-12T11:26:58.400Z,0.1
2023-03-12T11:28:01.555Z,0.2
2023-03-12T11:29:04.855Z,0.2
2023-03-12T11:30:08.213Z,0.1
2023-03-12T11:31:11.425Z,0.1
2023-03-12T11:32:13.758Z,0.1
2023-03-12T11:33:16.064Z,0.1
2023-03-12T11:34:19.349Z,0.2
2023-03-12T11:35:22.643Z,0.1
2023-03-12T11:36:25.941Z,0.1
2023-03-12T11:37:29.208Z,0.2
2023-03-12T11:38:33.045Z,0.1
2023-03-12T11:39:36.335Z,0.2
2023-03-12T11:40:39.637Z,0.2
2023-03-12T11:41:42.989Z,0.2
2023-03-12T11:42:46.204Z,0.2
2023-03-12T11:43:49.508Z,0.2
2023-03-12T11:44:52.838Z,0.2
2023-03-12T11:45:56.079Z,0.2
2023-03-12T11:46:58.467Z,0.2
2023-03-12T11:48:01.679Z,0.1
2023-03-12T11:49:04.967Z,0.1
2023-03-12T11:50:08.265Z,0.1
2023-03-12T11:51:11.600Z,0.2
2023-03-12T11:52:14.856Z,0.2
2023-03-12T11:53:18.129Z,0.2
2023-03-12T11:54:20.454Z,0.1
2023-03-12T11:55:22.752Z,0.1
2023-03-12T11:56:25.080Z,0.2
2023-03-12T11:57:27.489Z,0.2
2023-03-12T11:58:30.741Z,0.1
2023-03-12T11:59:34.020Z,0.1
2023-03-12T12:00:36.267Z,0.1
2023-03-12T12:01:38.582Z,0.2
2023-03-12T12:02:41.985Z,0.2
2023-03-12T12:03:45.186Z,0.1
2023-03-12T12:04:48.525Z,0.2
2023-03-12T12:05:51.758Z,0.1
2023-03-12T12:06:55.069Z,0.1
2023-03-12T12:07:58.409Z,0.2
2023-03-12T12:09:01.695Z,0.2
2023-03-12T12:10:04.933Z,0.3
2023-03-12T12:11:08.210Z,0.2
2023-03-12T12:12:11.518Z,0.2
2023-03-12T12:13:14.803Z,0.2
2023-03-12T12:14:18.100Z,0.1
2023-03-12T12:15:20.458Z,0.2
2023-03-12T12:16:23.673Z,0.3
2023-03-12T12:17:26.985Z,0.2
2023-03-12T12:18:30.334Z,0.1
2023-03-12T12:19:33.568Z,0.3
2023-03-12T12:20:36.847Z,0.1
2023-03-12T12:21:40.142Z,0.6
2023-03-12T12:22:42.460Z,0.4
2023-03-12T12:23:44.767Z,0.3
2023-03-12T12:24:47.094Z,0.5
2023-03-12T12:25:49.385Z,0.4
2023-03-12T12:26:52.684Z,0.3
2023-03-12T12:27:55.968Z,0.4
2023-03-12T12:28:59.268Z,0.5
2023-03-12T12:30:02.605Z,0.6
2023-03-12T12:31:05.866Z,0.5
2023-03-12T12:32:09.149Z,0.4
2023-03-12T12:33:12.472Z,0.5
2023-03-12T12:34:15.708Z,0.6
2023-03-12T12:35:19.028Z,0.5
2023-03-12T12:36:22.297Z,0.5
2023-03-12T12:37:25.614Z,0.7
2023-03-12T12:38:28.891Z,0.6
2023-03-12T12:39:31.219Z,0.6
2023-03-12T12:40:34.571Z,0.7
2023-03-12T12:41:37.796Z,0.8
2023-03-12T12:42:41.066Z,0.5
2023-03-12T12:43:44.548Z,0.6
2023-03-12T12:44:47.686Z,0.6
2023-03-12T12:45:50.963Z,0.8
2023-03-12T12:46:53.310Z,0.5
2023-03-12T12:47:55.574Z,0.5
2023-03-12T12:48:57.886Z,0.5
2023-03-12T12:50:00.193Z,0.7
2023-03-12T12:51:03.504Z,0.6
2023-03-12T12:52:06.765Z,0.7
2023-03-12T12:53:10.066Z,0.5
2023-03-12T12:54:13.364Z,0.6
2023-03-12T12:55:16.666Z,0.5
2023-03-12T12:56:19.936Z,0.6
2023-03-12T12:57:23.242Z,0.6
2023-03-12T12:58:26.532Z,0.5
2023-03-12T12:59:29.888Z,0.6
2023-03-12T13:00:33.551Z,0.5
2023-03-12T13:01:36.856Z,0.7
2023-03-12T13:02:40.138Z,0.6
2023-03-12T13:03:42.449Z,1
2023-03-12T13:04:45.735Z,1
2023-03-12T13:05:48.103Z,0.9
2023-03-12T13:06:51.347Z,0.7
2023-03-12T13:07:54.624Z,0.7
2023-03-12T13:08:57.919Z,0.9
2023-03-12T13:10:01.208Z,0.8
2023-03-12T13:11:03.539Z,0.7
2023-03-12T13:12:05.907Z,0.8
2023-03-12T13:13:08.164Z,1.2
2023-03-12T13:14:10.554Z,0.8
2023-03-12T13:15:13.765Z,0.9
2023-03-12T13:16:17.039Z,0.8
2023-03-12T13:17:20.330Z,0.8
2023-03-12T13:18:23.631Z,1
2023-03-12T13:19:26.922Z,1
2023-03-12T13:20:30.259Z,1
2023-03-12T13:21:33.701Z,1
2023-03-12T13:22:36.984Z,1
2023-03-12T13:23:40.291Z,0.8
2023-03-12T13:24:43.569Z,1.1
2023-03-12T13:25:46.881Z,1.1
2023-03-12T13:26:50.149Z,1
2023-03-12T13:27:52.462Z,0.8
2023-03-12T13:28:55.744Z,1.2
2023-03-12T13:29:59.091Z,1.2
2023-03-12T13:31:02.334Z,1.1
2023-03-12T13:32:05.679Z,1.3
2023-03-12T13:33:08.922Z,1.5
2023-03-12T13:34:12.406Z,1.2
2023-03-12T13:35:14.526Z,1
2023-03-12T13:36:16.817Z,1.5
2023-03-12T13:37:19.140Z,1.9
2023-03-12T13:38:21.517Z,1.1
2023-03-12T13:39:24.810Z,1.1
2023-03-12T13:40:28.022Z,0.9
2023-03-12T13:41:31.318Z,0.9
2023-03-12T13:42:34.613Z,0.9
2023-03-12T13:43:37.986Z,0.9
2023-03-12T13:44:41.211Z,0.9
2023-03-12T13:45:44.497Z,0.9
2023-03-12T13:46:47.776Z,0.7
2023-03-12T13:47:51.180Z,0.9
2023-03-12T13:48:54.363Z,0.7
2023-03-12T13:49:57.677Z,0.8
2023-03-12T13:51:00.983Z,0.7
2023-03-12T13:52:03.274Z,0.8
2023-03-12T13:53:06.553Z,0.8
2023-03-12T13:54:09.900Z,0.9
2023-03-12T13:55:13.146Z,1.4
2023-03-12T13:56:16.428Z,0.8
2023-03-12T13:57:19.745Z,0.8
2023-03-12T13:58:23.037Z,0.8
2023-03-12T13:59:25.317Z,0.7
2023-03-12T14:00:27.639Z,0.6
2023-03-12T14:01:29.926Z,0.9
2023-03-12T14:02:32.230Z,0.8
2023-03-12T14:03:35.601Z,0.8
2023-03-12T14:04:38.849Z,1
2023-03-12T14:05:42.126Z,1
2023-03-12T14:06:45.419Z,0.9
2023-03-12T14:07:48.701Z,0.9
2023-03-12T14:08:52.004Z,0.8
2023-03-12T14:09:55.294Z,1
2023-03-12T14:10:58.578Z,0.9
2023-03-12T14:12:02.035Z,0.8
2023-03-12T14:13:05.167Z,1
2023-03-12T14:14:08.470Z,0.8
2023-03-12T14:15:11.752Z,0.8
2023-03-12T14:16:14.052Z,0.7
2023-03-12T14:17:17.346Z,0.8
2023-03-12T14:18:20.668Z,0.8
2023-03-12T14:19:23.929Z,0.7
2023-03-12T14:20:27.224Z,0.8
2023-03-12T14:21:30.518Z,0.8
2023-03-12T14:22:34.281Z,0.8
2023-03-12T14:23:37.161Z,0.7
2023-03-12T14:24:39.464Z,0.8
2023-03-12T14:25:42.751Z,0.9
2023-03-12T14:26:45.075Z,0.6
2023-03-12T14:27:47.394Z,0.8
2023-03-12T14:28:50.726Z,0.5
2023-03-12T14:30:57.249Z,0.6
2023-03-12T14:32:00.561Z,0.7
2023-03-12T14:33:03.844Z,0.6
2023-03-12T14:34:07.122Z,0.7
2023-03-12T14:35:10.427Z,0.6
2023-03-12T14:36:13.741Z,0.6